sensor_id;sensor_type;location;lat;lon;timestamp;temperature;humidity
40600;DHT22;26309;50.924;4.754;2023-06-22T00:02:18;21.40;99.90
40600;DHT22;26309;50.924;4.754;2023-06-22T00:04:44;21.40;99.90
40600;DHT22;26309;50.924;4.754;2023-06-22T00:07:10;21.40;99.90
40600;DHT22;26309;50.924;4.754;2023-06-22T00:09:36;21.50;99.90
40600;DHT22;26309;50.924;4.754;2023-06-22T00:12:02;21.40;99.90
40600;DHT22;26309;50.924;4.754;2023-06-22T00:14:28;21.20;99.90
40600;DHT22;26309;50.924;4.754;2023-06-22T00:16:54;21.30;99.90
40600;DHT22;26309;50.924;4.754;2023-06-22T00:19:25;21.20;99.90
40600;DHT22;26309;50.924;4.754;2023-06-22T00:21:51;21.20;99.90
40600;DHT22;26309;50.924;4.754;2023-06-22T00:24:20;21.10;99.90
40600;DHT22;26309;50.924;4.754;2023-06-22T00:26:50;20.80;99.90
40600;DHT22;26309;50.924;4.754;2023-06-22T00:29:16;20.70;99.90
40600;DHT22;26309;50.924;4.754;2023-06-22T00:31:42;20.70;99.90
40600;DHT22;26309;50.924;4.754;2023-06-22T00:34:08;20.60;99.90
40600;DHT22;26309;50.924;4.754;2023-06-22T00:36:35;20.60;99.90
40600;DHT22;26309;50.924;4.754;2023-06-22T00:39:01;20.50;99.90
40600;DHT22;26309;50.924;4.754;2023-06-22T00:41:29;20.50;99.90
40600;DHT22;26309;50.924;4.754;2023-06-22T00:43:55;20.60;99.90
40600;DHT22;26309;50.924;4.754;2023-06-22T00:46:21;20.80;99.90
40600;DHT22;26309;50.924;4.754;2023-06-22T00:48:49;20.90;99.90
40600;DHT22;26309;50.924;4.754;2023-06-22T00:51:16;20.90;99.90
40600;DHT22;26309;50.924;4.754;2023-06-22T00:53:42;20.90;99.90
40600;DHT22;26309;50.924;4.754;2023-06-22T00:56:09;20.90;99.90
40600;DHT22;26309;50.924;4.754;2023-06-22T00:58:37;20.80;99.90
40600;DHT22;26309;50.924;4.754;2023-06-22T01:01:06;20.80;99.90
40600;DHT22;26309;50.924;4.754;2023-06-22T01:03:32;20.70;99.90
40600;DHT22;26309;50.924;4.754;2023-06-22T01:06:02;20.80;99.90
40600;DHT22;26309;50.924;4.754;2023-06-22T01:08:48;21.00;99.90
40600;DHT22;26309;50.924;4.754;2023-06-22T01:11:26;21.10;99.90
40600;DHT22;26309;50.924;4.754;2023-06-22T01:14:08;21.10;99.90
40600;DHT22;26309;50.924;4.754;2023-06-22T01:16:41;20.90;99.90
40600;DHT22;26309;50.924;4.754;2023-06-22T01:19:44;20.80;99.90
40600;DHT22;26309;50.924;4.754;2023-06-22T01:22:17;20.80;99.90
40600;DHT22;26309;50.924;4.754;2023-06-22T01:27:49;21.10;99.90
40600;DHT22;26309;50.924;4.754;2023-06-22T01:30:17;21.00;99.90
40600;DHT22;26309;50.924;4.754;2023-06-22T01:32:44;20.80;99.90
40600;DHT22;26309;50.924;4.754;2023-06-22T01:35:11;20.70;99.90
40600;DHT22;26309;50.924;4.754;2023-06-22T01:37:38;20.60;99.90
40600;DHT22;26309;50.924;4.754;2023-06-22T01:40:06;20.50;99.90
40600;DHT22;26309;50.924;4.754;2023-06-22T01:42:34;20.40;99.90
40600;DHT22;26309;50.924;4.754;2023-06-22T01:45:01;20.40;99.90
40600;DHT22;26309;50.924;4.754;2023-06-22T01:47:27;20.50;99.90
40600;DHT22;26309;50.924;4.754;2023-06-22T01:49:54;20.50;99.90
40600;DHT22;26309;50.924;4.754;2023-06-22T01:52:20;20.70;99.90
40600;DHT22;26309;50.924;4.754;2023-06-22T01:54:49;20.60;99.90
40600;DHT22;26309;50.924;4.754;2023-06-22T01:57:15;20.40;99.90
40600;DHT22;26309;50.924;4.754;2023-06-22T02:03:00;20.20;99.90
40600;DHT22;26309;50.924;4.754;2023-06-22T02:05:31;20.20;99.90
40600;DHT22;26309;50.924;4.754;2023-06-22T02:10:34;20.00;99.90
40600;DHT22;26309;50.924;4.754;2023-06-22T02:13:04;19.80;99.90
40600;DHT22;26309;50.924;4.754;2023-06-22T02:15:32;19.70;99.90
40600;DHT22;26309;50.924;4.754;2023-06-22T02:17:58;19.70;99.90
40600;DHT22;26309;50.924;4.754;2023-06-22T02:20:24;19.60;99.90
40600;DHT22;26309;50.924;4.754;2023-06-22T02:22:50;19.50;99.90
40600;DHT22;26309;50.924;4.754;2023-06-22T02:25:16;19.70;99.90
40600;DHT22;26309;50.924;4.754;2023-06-22T02:27:43;19.80;99.90
40600;DHT22;26309;50.924;4.754;2023-06-22T02:30:09;19.80;99.90
40600;DHT22;26309;50.924;4.754;2023-06-22T02:32:35;19.70;99.90
40600;DHT22;26309;50.924;4.754;2023-06-22T02:35:01;19.70;99.90
40600;DHT22;26309;50.924;4.754;2023-06-22T02:37:31;19.60;99.90
40600;DHT22;26309;50.924;4.754;2023-06-22T02:39:57;19.50;99.90
40600;DHT22;26309;50.924;4.754;2023-06-22T02:42:23;19.40;99.90
40600;DHT22;26309;50.924;4.754;2023-06-22T02:44:49;19.40;99.90
40600;DHT22;26309;50.924;4.754;2023-06-22T02:47:15;19.60;99.90
40600;DHT22;26309;50.924;4.754;2023-06-22T02:49:41;19.60;99.90
40600;DHT22;26309;50.924;4.754;2023-06-22T02:52:07;19.40;99.90
40600;DHT22;26309;50.924;4.754;2023-06-22T02:54:33;19.20;99.90
40600;DHT22;26309;50.924;4.754;2023-06-22T02:56:59;19.30;99.90
40600;DHT22;26309;50.924;4.754;2023-06-22T02:59:28;19.20;99.90
40600;DHT22;26309;50.924;4.754;2023-06-22T03:01:54;19.20;99.90
40600;DHT22;26309;50.924;4.754;2023-06-22T03:04:20;19.40;99.90
40600;DHT22;26309;50.924;4.754;2023-06-22T03:06:46;19.40;99.90
40600;DHT22;26309;50.924;4.754;2023-06-22T03:09:16;19.40;99.90
40600;DHT22;26309;50.924;4.754;2023-06-22T03:11:43;19.50;99.90
40600;DHT22;26309;50.924;4.754;2023-06-22T03:14:08;19.30;99.90
40600;DHT22;26309;50.924;4.754;2023-06-22T03:16:34;19.20;99.90
40600;DHT22;26309;50.924;4.754;2023-06-22T03:19:00;19.20;99.90
40600;DHT22;26309;50.924;4.754;2023-06-22T03:21:29;18.90;99.90
40600;DHT22;26309;50.924;4.754;2023-06-22T03:23:55;18.80;99.90
40600;DHT22;26309;50.924;4.754;2023-06-22T03:26:21;18.90;99.90
40600;DHT22;26309;50.924;4.754;2023-06-22T03:28:49;18.90;99.90
40600;DHT22;26309;50.924;4.754;2023-06-22T03:31:15;18.80;99.90
40600;DHT22;26309;50.924;4.754;2023-06-22T03:33:41;19.00;99.90
40600;DHT22;26309;50.924;4.754;2023-06-22T03:36:07;19.20;99.90
40600;DHT22;26309;50.924;4.754;2023-06-22T03:38:32;19.30;99.90
40600;DHT22;26309;50.924;4.754;2023-06-22T03:40:58;19.40;99.90
40600;DHT22;26309;50.924;4.754;2023-06-22T03:43:24;19.50;99.90
40600;DHT22;26309;50.924;4.754;2023-06-22T03:45:50;19.40;99.90
40600;DHT22;26309;50.924;4.754;2023-06-22T03:48:16;19.60;99.90
40600;DHT22;26309;50.924;4.754;2023-06-22T03:50:42;19.60;99.90
40600;DHT22;26309;50.924;4.754;2023-06-22T03:53:09;19.50;99.90
40600;DHT22;26309;50.924;4.754;2023-06-22T03:55:36;19.60;99.90
40600;DHT22;26309;50.924;4.754;2023-06-22T03:58:02;19.50;99.90
40600;DHT22;26309;50.924;4.754;2023-06-22T04:00:32;19.70;99.90
40600;DHT22;26309;50.924;4.754;2023-06-22T04:02:58;19.70;99.90
40600;DHT22;26309;50.924;4.754;2023-06-22T04:05:24;19.70;99.90
40600;DHT22;26309;50.924;4.754;2023-06-22T04:07:50;19.60;99.90
40600;DHT22;26309;50.924;4.754;2023-06-22T04:10:16;19.70;99.90
40600;DHT22;26309;50.924;4.754;2023-06-22T04:12:42;19.60;99.90
40600;DHT22;26309;50.924;4.754;2023-06-22T04:15:08;19.70;99.90
40600;DHT22;26309;50.924;4.754;2023-06-22T04:17:34;19.80;99.90
40600;DHT22;26309;50.924;4.754;2023-06-22T04:20:00;20.00;99.90
40600;DHT22;26309;50.924;4.754;2023-06-22T04:22:26;20.00;99.90
40600;DHT22;26309;50.924;4.754;2023-06-22T04:24:51;20.20;99.90
40600;DHT22;26309;50.924;4.754;2023-06-22T04:27:18;20.20;99.90
40600;DHT22;26309;50.924;4.754;2023-06-22T04:29:45;20.10;99.90
40600;DHT22;26309;50.924;4.754;2023-06-22T04:32:17;20.10;99.90
40600;DHT22;26309;50.924;4.754;2023-06-22T04:34:43;20.30;99.90
40600;DHT22;26309;50.924;4.754;2023-06-22T04:37:09;20.40;99.90
40600;DHT22;26309;50.924;4.754;2023-06-22T04:39:42;20.40;99.90
40600;DHT22;26309;50.924;4.754;2023-06-22T04:42:08;20.30;99.90
40600;DHT22;26309;50.924;4.754;2023-06-22T04:44:34;20.30;99.90
40600;DHT22;26309;50.924;4.754;2023-06-22T04:47:01;20.20;99.90
40600;DHT22;26309;50.924;4.754;2023-06-22T04:49:30;20.20;99.90
40600;DHT22;26309;50.924;4.754;2023-06-22T04:52:00;20.30;99.90
40600;DHT22;26309;50.924;4.754;2023-06-22T04:54:26;20.20;99.90
40600;DHT22;26309;50.924;4.754;2023-06-22T04:56:52;20.30;99.90
40600;DHT22;26309;50.924;4.754;2023-06-22T04:59:24;20.40;99.90
40600;DHT22;26309;50.924;4.754;2023-06-22T05:02:01;20.70;99.90
40600;DHT22;26309;50.924;4.754;2023-06-22T05:04:28;20.70;99.90
40600;DHT22;26309;50.924;4.754;2023-06-22T05:06:57;20.70;99.90
40600;DHT22;26309;50.924;4.754;2023-06-22T05:09:27;20.70;99.90
40600;DHT22;26309;50.924;4.754;2023-06-22T05:11:54;21.00;99.90
40600;DHT22;26309;50.924;4.754;2023-06-22T05:14:22;21.10;99.90
40600;DHT22;26309;50.924;4.754;2023-06-22T05:16:48;21.00;99.90
40600;DHT22;26309;50.924;4.754;2023-06-22T05:19:15;21.00;99.90
40600;DHT22;26309;50.924;4.754;2023-06-22T05:21:41;21.00;99.90
40600;DHT22;26309;50.924;4.754;2023-06-22T05:24:07;20.90;99.90
40600;DHT22;26309;50.924;4.754;2023-06-22T05:26:34;20.90;99.90
40600;DHT22;26309;50.924;4.754;2023-06-22T05:29:01;20.90;99.90
40600;DHT22;26309;50.924;4.754;2023-06-22T05:31:28;21.20;99.90
40600;DHT22;26309;50.924;4.754;2023-06-22T05:33:54;21.40;99.90
40600;DHT22;26309;50.924;4.754;2023-06-22T05:36:21;21.40;99.90
40600;DHT22;26309;50.924;4.754;2023-06-22T05:38:51;21.50;99.90
40600;DHT22;26309;50.924;4.754;2023-06-22T05:41:17;21.50;99.90
40600;DHT22;26309;50.924;4.754;2023-06-22T05:43:43;21.60;99.90
40600;DHT22;26309;50.924;4.754;2023-06-22T05:46:09;21.50;99.90
40600;DHT22;26309;50.924;4.754;2023-06-22T05:48:35;21.50;99.90
40600;DHT22;26309;50.924;4.754;2023-06-22T05:51:01;21.50;99.90
40600;DHT22;26309;50.924;4.754;2023-06-22T05:53:27;21.40;99.90
40600;DHT22;26309;50.924;4.754;2023-06-22T05:55:53;21.30;99.90
40600;DHT22;26309;50.924;4.754;2023-06-22T05:58:19;21.40;99.90
40600;DHT22;26309;50.924;4.754;2023-06-22T06:00:45;21.60;99.90
40600;DHT22;26309;50.924;4.754;2023-06-22T06:03:12;21.70;99.90
40600;DHT22;26309;50.924;4.754;2023-06-22T06:05:43;21.70;99.90
40600;DHT22;26309;50.924;4.754;2023-06-22T06:08:09;21.80;99.90
40600;DHT22;26309;50.924;4.754;2023-06-22T06:10:37;21.80;99.90
40600;DHT22;26309;50.924;4.754;2023-06-22T06:13:03;21.50;99.90
40600;DHT22;26309;50.924;4.754;2023-06-22T06:15:30;21.70;99.90
40600;DHT22;26309;50.924;4.754;2023-06-22T06:17:56;21.90;99.90
40600;DHT22;26309;50.924;4.754;2023-06-22T06:20:24;22.10;99.90
40600;DHT22;26309;50.924;4.754;2023-06-22T06:22:50;22.10;99.90
40600;DHT22;26309;50.924;4.754;2023-06-22T06:25:19;22.40;99.90
40600;DHT22;26309;50.924;4.754;2023-06-22T06:27:48;22.40;99.90
40600;DHT22;26309;50.924;4.754;2023-06-22T06:30:16;22.50;99.90
40600;DHT22;26309;50.924;4.754;2023-06-22T06:32:43;22.00;99.90
40600;DHT22;26309;50.924;4.754;2023-06-22T06:35:12;22.00;99.90
40600;DHT22;26309;50.924;4.754;2023-06-22T06:37:40;22.10;99.90
40600;DHT22;26309;50.924;4.754;2023-06-22T06:40:11;22.30;99.90
40600;DHT22;26309;50.924;4.754;2023-06-22T06:42:47;22.30;99.90
40600;DHT22;26309;50.924;4.754;2023-06-22T06:45:20;22.50;99.90
40600;DHT22;26309;50.924;4.754;2023-06-22T06:47:53;22.10;99.90
40600;DHT22;26309;50.924;4.754;2023-06-22T06:50:20;22.00;99.90
40600;DHT22;26309;50.924;4.754;2023-06-22T06:52:47;22.30;99.90
40600;DHT22;26309;50.924;4.754;2023-06-22T06:55:15;22.50;99.90
40600;DHT22;26309;50.924;4.754;2023-06-22T06:57:42;22.80;99.90
40600;DHT22;26309;50.924;4.754;2023-06-22T07:00:11;22.70;99.90
40600;DHT22;26309;50.924;4.754;2023-06-22T07:02:45;22.70;99.90
40600;DHT22;26309;50.924;4.754;2023-06-22T07:05:13;22.60;99.90
40600;DHT22;26309;50.924;4.754;2023-06-22T07:07:39;22.10;99.90
40600;DHT22;26309;50.924;4.754;2023-06-22T07:10:09;22.20;99.90
40600;DHT22;26309;50.924;4.754;2023-06-22T07:12:35;22.20;99.90
40600;DHT22;26309;50.924;4.754;2023-06-22T07:15:08;22.10;99.90
40600;DHT22;26309;50.924;4.754;2023-06-22T07:17:37;22.00;99.90
40600;DHT22;26309;50.924;4.754;2023-06-22T07:20:06;22.10;99.90
40600;DHT22;26309;50.924;4.754;2023-06-22T07:22:43;22.00;99.90
40600;DHT22;26309;50.924;4.754;2023-06-22T07:25:10;22.10;99.90
40600;DHT22;26309;50.924;4.754;2023-06-22T07:27:42;21.90;99.90
40600;DHT22;26309;50.924;4.754;2023-06-22T07:30:09;21.70;99.90
40600;DHT22;26309;50.924;4.754;2023-06-22T07:32:35;21.60;99.90
40600;DHT22;26309;50.924;4.754;2023-06-22T07:35:02;21.50;99.90
40600;DHT22;26309;50.924;4.754;2023-06-22T07:37:31;21.30;99.90
40600;DHT22;26309;50.924;4.754;2023-06-22T07:39:58;21.70;99.90
40600;DHT22;26309;50.924;4.754;2023-06-22T07:42:25;21.90;99.90
40600;DHT22;26309;50.924;4.754;2023-06-22T07:44:51;21.90;99.90
40600;DHT22;26309;50.924;4.754;2023-06-22T07:47:17;21.80;99.90
40600;DHT22;26309;50.924;4.754;2023-06-22T07:49:51;21.90;99.90
40600;DHT22;26309;50.924;4.754;2023-06-22T07:52:17;22.10;99.90
40600;DHT22;26309;50.924;4.754;2023-06-22T07:54:43;22.10;99.90
40600;DHT22;26309;50.924;4.754;2023-06-22T07:57:09;21.70;99.90
40600;DHT22;26309;50.924;4.754;2023-06-22T07:59:36;21.90;99.90
40600;DHT22;26309;50.924;4.754;2023-06-22T08:02:02;22.10;99.90
40600;DHT22;26309;50.924;4.754;2023-06-22T08:04:29;22.20;99.90
40600;DHT22;26309;50.924;4.754;2023-06-22T08:06:56;21.90;99.90
40600;DHT22;26309;50.924;4.754;2023-06-22T08:09:22;21.60;99.90
40600;DHT22;26309;50.924;4.754;2023-06-22T08:11:48;21.80;99.90
40600;DHT22;26309;50.924;4.754;2023-06-22T08:14:14;21.90;99.90
40600;DHT22;26309;50.924;4.754;2023-06-22T08:16:41;21.90;99.90
40600;DHT22;26309;50.924;4.754;2023-06-22T08:19:07;21.80;99.90
40600;DHT22;26309;50.924;4.754;2023-06-22T08:21:33;21.80;99.90
40600;DHT22;26309;50.924;4.754;2023-06-22T08:23:59;21.80;99.90
40600;DHT22;26309;50.924;4.754;2023-06-22T08:26:25;21.90;99.90
40600;DHT22;26309;50.924;4.754;2023-06-22T08:28:51;22.00;99.90
40600;DHT22;26309;50.924;4.754;2023-06-22T08:31:18;22.10;99.90
40600;DHT22;26309;50.924;4.754;2023-06-22T08:33:44;22.30;99.90
40600;DHT22;26309;50.924;4.754;2023-06-22T08:36:11;22.30;99.90
40600;DHT22;26309;50.924;4.754;2023-06-22T08:38:39;22.40;99.90
40600;DHT22;26309;50.924;4.754;2023-06-22T08:41:05;22.30;99.90
40600;DHT22;26309;50.924;4.754;2023-06-22T08:43:31;22.30;99.90
40600;DHT22;26309;50.924;4.754;2023-06-22T08:45:56;22.30;99.90
40600;DHT22;26309;50.924;4.754;2023-06-22T08:48:22;22.50;99.90
40600;DHT22;26309;50.924;4.754;2023-06-22T08:50:48;22.50;99.90
40600;DHT22;26309;50.924;4.754;2023-06-22T08:53:14;22.50;99.90
40600;DHT22;26309;50.924;4.754;2023-06-22T08:55:40;22.50;99.90
40600;DHT22;26309;50.924;4.754;2023-06-22T08:58:06;22.10;99.90
40600;DHT22;26309;50.924;4.754;2023-06-22T09:00:32;22.20;99.90
40600;DHT22;26309;50.924;4.754;2023-06-22T09:03:00;22.40;99.90
40600;DHT22;26309;50.924;4.754;2023-06-22T09:05:27;22.70;99.90
40600;DHT22;26309;50.924;4.754;2023-06-22T09:07:53;22.70;99.90
40600;DHT22;26309;50.924;4.754;2023-06-22T09:10:22;22.80;99.90
40600;DHT22;26309;50.924;4.754;2023-06-22T09:12:48;23.00;99.90
40600;DHT22;26309;50.924;4.754;2023-06-22T09:15:14;23.20;99.90
40600;DHT22;26309;50.924;4.754;2023-06-22T09:17:40;23.30;99.90
40600;DHT22;26309;50.924;4.754;2023-06-22T09:20:07;23.30;99.90
40600;DHT22;26309;50.924;4.754;2023-06-22T09:22:36;23.30;99.90
40600;DHT22;26309;50.924;4.754;2023-06-22T09:25:02;23.20;99.90
40600;DHT22;26309;50.924;4.754;2023-06-22T09:27:29;23.30;99.90
40600;DHT22;26309;50.924;4.754;2023-06-22T09:29:54;23.30;99.90
40600;DHT22;26309;50.924;4.754;2023-06-22T09:32:20;23.20;99.90
40600;DHT22;26309;50.924;4.754;2023-06-22T09:34:47;23.20;99.90
40600;DHT22;26309;50.924;4.754;2023-06-22T09:37:13;23.20;99.90
40600;DHT22;26309;50.924;4.754;2023-06-22T09:39:38;22.90;99.90
40600;DHT22;26309;50.924;4.754;2023-06-22T09:42:05;22.40;99.90
40600;DHT22;26309;50.924;4.754;2023-06-22T09:44:31;22.10;99.90
40600;DHT22;26309;50.924;4.754;2023-06-22T09:46:57;22.00;99.90
40600;DHT22;26309;50.924;4.754;2023-06-22T09:49:23;21.90;99.90
40600;DHT22;26309;50.924;4.754;2023-06-22T09:51:49;21.70;99.90
40600;DHT22;26309;50.924;4.754;2023-06-22T09:54:16;21.50;99.90
40600;DHT22;26309;50.924;4.754;2023-06-22T09:56:42;21.30;99.90
40600;DHT22;26309;50.924;4.754;2023-06-22T09:59:08;21.10;99.90
40600;DHT22;26309;50.924;4.754;2023-06-22T10:01:34;20.90;99.90
40600;DHT22;26309;50.924;4.754;2023-06-22T10:04:00;20.80;99.90
40600;DHT22;26309;50.924;4.754;2023-06-22T10:06:26;20.70;99.90
40600;DHT22;26309;50.924;4.754;2023-06-22T10:08:52;20.40;99.90
40600;DHT22;26309;50.924;4.754;2023-06-22T10:11:18;20.50;99.90
40600;DHT22;26309;50.924;4.754;2023-06-22T10:13:45;20.40;99.90
40600;DHT22;26309;50.924;4.754;2023-06-22T10:16:11;20.00;99.90
40600;DHT22;26309;50.924;4.754;2023-06-22T10:18:38;19.80;99.90
40600;DHT22;26309;50.924;4.754;2023-06-22T10:21:05;19.80;99.90
40600;DHT22;26309;50.924;4.754;2023-06-22T10:23:34;19.90;99.90
40600;DHT22;26309;50.924;4.754;2023-06-22T10:26:02;20.30;99.90
40600;DHT22;26309;50.924;4.754;2023-06-22T10:28:29;20.40;99.90
40600;DHT22;26309;50.924;4.754;2023-06-22T10:30:56;20.30;99.90
40600;DHT22;26309;50.924;4.754;2023-06-22T10:33:22;20.30;99.90
40600;DHT22;26309;50.924;4.754;2023-06-22T10:35:49;20.20;99.90
40600;DHT22;26309;50.924;4.754;2023-06-22T10:38:16;20.20;99.90
40600;DHT22;26309;50.924;4.754;2023-06-22T10:40:43;20.00;99.90
40600;DHT22;26309;50.924;4.754;2023-06-22T10:43:10;20.00;99.90
40600;DHT22;26309;50.924;4.754;2023-06-22T10:45:36;20.00;99.90
40600;DHT22;26309;50.924;4.754;2023-06-22T10:48:03;20.00;99.90
40600;DHT22;26309;50.924;4.754;2023-06-22T10:50:29;19.70;99.90
40600;DHT22;26309;50.924;4.754;2023-06-22T10:52:56;19.60;99.90
40600;DHT22;26309;50.924;4.754;2023-06-22T10:55:22;19.50;99.90
40600;DHT22;26309;50.924;4.754;2023-06-22T10:57:49;19.30;99.90
40600;DHT22;26309;50.924;4.754;2023-06-22T11:00:16;19.30;99.90
40600;DHT22;26309;50.924;4.754;2023-06-22T11:02:42;19.40;99.90
40600;DHT22;26309;50.924;4.754;2023-06-22T11:05:08;19.20;99.90
40600;DHT22;26309;50.924;4.754;2023-06-22T11:07:34;19.20;99.90
40600;DHT22;26309;50.924;4.754;2023-06-22T11:10:01;19.20;99.90
40600;DHT22;26309;50.924;4.754;2023-06-22T11:12:31;19.20;99.90
40600;DHT22;26309;50.924;4.754;2023-06-22T11:14:57;19.20;99.90
40600;DHT22;26309;50.924;4.754;2023-06-22T11:17:23;19.10;99.90
40600;DHT22;26309;50.924;4.754;2023-06-22T11:19:50;19.00;99.90
40600;DHT22;26309;50.924;4.754;2023-06-22T11:22:17;19.00;99.90
40600;DHT22;26309;50.924;4.754;2023-06-22T11:24:43;19.10;99.90
40600;DHT22;26309;50.924;4.754;2023-06-22T11:27:09;19.20;99.90
40600;DHT22;26309;50.924;4.754;2023-06-22T11:29:35;19.30;99.90
40600;DHT22;26309;50.924;4.754;2023-06-22T11:32:01;19.30;99.90
40600;DHT22;26309;50.924;4.754;2023-06-22T11:34:27;19.50;99.90
40600;DHT22;26309;50.924;4.754;2023-06-22T11:36:53;19.60;99.90
40600;DHT22;26309;50.924;4.754;2023-06-22T11:39:19;19.50;99.90
40600;DHT22;26309;50.924;4.754;2023-06-22T11:41:45;19.60;99.90
40600;DHT22;26309;50.924;4.754;2023-06-22T11:44:11;19.80;99.90
40600;DHT22;26309;50.924;4.754;2023-06-22T11:46:37;19.80;99.90
40600;DHT22;26309;50.924;4.754;2023-06-22T11:49:03;19.70;99.90
40600;DHT22;26309;50.924;4.754;2023-06-22T11:51:29;19.60;99.90
40600;DHT22;26309;50.924;4.754;2023-06-22T11:53:57;19.70;99.90
40600;DHT22;26309;50.924;4.754;2023-06-22T11:56:24;19.60;99.90
40600;DHT22;26309;50.924;4.754;2023-06-22T11:58:50;19.50;99.90
40600;DHT22;26309;50.924;4.754;2023-06-22T12:01:16;19.60;99.90
40600;DHT22;26309;50.924;4.754;2023-06-22T12:03:42;19.80;99.90
40600;DHT22;26309;50.924;4.754;2023-06-22T12:06:10;19.70;99.90
40600;DHT22;26309;50.924;4.754;2023-06-22T12:08:36;19.70;99.90
40600;DHT22;26309;50.924;4.754;2023-06-22T12:11:03;19.70;99.90
40600;DHT22;26309;50.924;4.754;2023-06-22T12:13:29;19.60;99.90
40600;DHT22;26309;50.924;4.754;2023-06-22T12:15:55;19.60;99.90
40600;DHT22;26309;50.924;4.754;2023-06-22T12:18:22;19.50;99.90
40600;DHT22;26309;50.924;4.754;2023-06-22T12:20:48;19.50;99.90
40600;DHT22;26309;50.924;4.754;2023-06-22T12:23:16;19.60;99.90
40600;DHT22;26309;50.924;4.754;2023-06-22T12:25:44;19.50;99.90
40600;DHT22;26309;50.924;4.754;2023-06-22T12:28:10;19.50;99.90
40600;DHT22;26309;50.924;4.754;2023-06-22T12:30:44;19.50;99.90
40600;DHT22;26309;50.924;4.754;2023-06-22T12:33:10;19.30;99.90
40600;DHT22;26309;50.924;4.754;2023-06-22T12:35:36;19.40;99.90
40600;DHT22;26309;50.924;4.754;2023-06-22T12:38:02;19.50;99.90
40600;DHT22;26309;50.924;4.754;2023-06-22T12:40:28;19.50;99.90
40600;DHT22;26309;50.924;4.754;2023-06-22T12:42:54;19.70;99.90
40600;DHT22;26309;50.924;4.754;2023-06-22T12:45:21;19.70;99.90
40600;DHT22;26309;50.924;4.754;2023-06-22T12:47:47;19.60;99.90
40600;DHT22;26309;50.924;4.754;2023-06-22T12:50:15;19.50;99.90
40600;DHT22;26309;50.924;4.754;2023-06-22T12:52:41;19.30;99.90
40600;DHT22;26309;50.924;4.754;2023-06-22T12:55:07;19.30;99.90
40600;DHT22;26309;50.924;4.754;2023-06-22T12:57:33;19.30;99.90
40600;DHT22;26309;50.924;4.754;2023-06-22T12:59:59;19.30;99.90
40600;DHT22;26309;50.924;4.754;2023-06-22T13:02:26;19.30;99.90
40600;DHT22;26309;50.924;4.754;2023-06-22T13:04:52;19.30;99.90
40600;DHT22;26309;50.924;4.754;2023-06-22T13:07:19;19.30;99.90
40600;DHT22;26309;50.924;4.754;2023-06-22T13:09:45;19.30;99.90
40600;DHT22;26309;50.924;4.754;2023-06-22T13:12:12;19.40;99.90
40600;DHT22;26309;50.924;4.754;2023-06-22T13:14:38;19.40;99.90
40600;DHT22;26309;50.924;4.754;2023-06-22T13:17:05;19.50;99.90
40600;DHT22;26309;50.924;4.754;2023-06-22T13:19:31;19.50;99.90
40600;DHT22;26309;50.924;4.754;2023-06-22T13:21:59;19.40;99.90
40600;DHT22;26309;50.924;4.754;2023-06-22T13:24:26;19.40;99.90
40600;DHT22;26309;50.924;4.754;2023-06-22T13:26:52;19.30;99.90
40600;DHT22;26309;50.924;4.754;2023-06-22T13:29:20;19.40;99.90
40600;DHT22;26309;50.924;4.754;2023-06-22T13:31:46;19.40;99.90
40600;DHT22;26309;50.924;4.754;2023-06-22T13:34:13;19.20;99.90
40600;DHT22;26309;50.924;4.754;2023-06-22T13:36:39;19.20;99.90
40600;DHT22;26309;50.924;4.754;2023-06-22T13:39:06;19.20;99.90
40600;DHT22;26309;50.924;4.754;2023-06-22T13:41:34;19.30;99.90
40600;DHT22;26309;50.924;4.754;2023-06-22T13:44:00;19.30;99.90
40600;DHT22;26309;50.924;4.754;2023-06-22T13:46:28;19.30;99.90
40600;DHT22;26309;50.924;4.754;2023-06-22T13:48:55;19.20;99.90
40600;DHT22;26309;50.924;4.754;2023-06-22T13:51:21;19.20;99.90
40600;DHT22;26309;50.924;4.754;2023-06-22T13:53:47;19.20;99.90
40600;DHT22;26309;50.924;4.754;2023-06-22T13:56:14;19.20;99.90
40600;DHT22;26309;50.924;4.754;2023-06-22T13:58:40;19.20;99.90
40600;DHT22;26309;50.924;4.754;2023-06-22T14:01:07;19.10;99.90
40600;DHT22;26309;50.924;4.754;2023-06-22T14:03:33;19.10;99.90
40600;DHT22;26309;50.924;4.754;2023-06-22T14:05:59;19.00;99.90
40600;DHT22;26309;50.924;4.754;2023-06-22T14:08:26;19.00;99.90
40600;DHT22;26309;50.924;4.754;2023-06-22T14:10:52;19.10;99.90
40600;DHT22;26309;50.924;4.754;2023-06-22T14:13:19;19.20;99.90
40600;DHT22;26309;50.924;4.754;2023-06-22T14:15:46;19.20;99.90
40600;DHT22;26309;50.924;4.754;2023-06-22T14:18:14;19.20;99.90
40600;DHT22;26309;50.924;4.754;2023-06-22T14:20:41;19.20;99.90
40600;DHT22;26309;50.924;4.754;2023-06-22T14:23:10;19.20;99.90
40600;DHT22;26309;50.924;4.754;2023-06-22T14:25:39;19.10;99.90
40600;DHT22;26309;50.924;4.754;2023-06-22T14:28:05;19.00;99.90
40600;DHT22;26309;50.924;4.754;2023-06-22T14:30:32;18.90;99.90
40600;DHT22;26309;50.924;4.754;2023-06-22T14:32:58;18.90;99.90
40600;DHT22;26309;50.924;4.754;2023-06-22T14:35:25;18.90;99.90
40600;DHT22;26309;50.924;4.754;2023-06-22T14:37:51;18.90;99.90
40600;DHT22;26309;50.924;4.754;2023-06-22T14:40:18;18.90;99.90
40600;DHT22;26309;50.924;4.754;2023-06-22T14:42:45;19.00;99.90
40600;DHT22;26309;50.924;4.754;2023-06-22T14:45:13;19.00;99.90
40600;DHT22;26309;50.924;4.754;2023-06-22T14:47:40;19.00;99.90
40600;DHT22;26309;50.924;4.754;2023-06-22T14:50:07;19.00;99.90
40600;DHT22;26309;50.924;4.754;2023-06-22T14:52:34;19.00;99.90
40600;DHT22;26309;50.924;4.754;2023-06-22T14:55:00;18.90;99.90
40600;DHT22;26309;50.924;4.754;2023-06-22T14:57:27;18.90;99.90
40600;DHT22;26309;50.924;4.754;2023-06-22T14:59:54;18.90;99.90
40600;DHT22;26309;50.924;4.754;2023-06-22T15:02:21;18.90;99.90
40600;DHT22;26309;50.924;4.754;2023-06-22T15:04:48;18.90;99.90
40600;DHT22;26309;50.924;4.754;2023-06-22T15:07:15;18.80;99.90
40600;DHT22;26309;50.924;4.754;2023-06-22T15:09:42;19.00;99.90
40600;DHT22;26309;50.924;4.754;2023-06-22T15:12:11;19.00;99.90
40600;DHT22;26309;50.924;4.754;2023-06-22T15:14:42;19.10;99.90
40600;DHT22;26309;50.924;4.754;2023-06-22T15:17:11;19.30;99.90
40600;DHT22;26309;50.924;4.754;2023-06-22T15:19:41;19.20;99.90
40600;DHT22;26309;50.924;4.754;2023-06-22T15:22:08;19.30;99.90
40600;DHT22;26309;50.924;4.754;2023-06-22T15:24:35;19.40;99.90
40600;DHT22;26309;50.924;4.754;2023-06-22T15:27:01;19.40;99.90
40600;DHT22;26309;50.924;4.754;2023-06-22T15:29:28;19.40;99.90
40600;DHT22;26309;50.924;4.754;2023-06-22T15:32:00;19.50;99.90
40600;DHT22;26309;50.924;4.754;2023-06-22T15:34:28;19.60;99.90
40600;DHT22;26309;50.924;4.754;2023-06-22T15:36:55;19.40;99.90
40600;DHT22;26309;50.924;4.754;2023-06-22T15:39:21;19.20;99.90